Tappahannock, Virginia
Current Conditions -  °F | °C
As of 11:55 AM on Saturday 22 Nov 2014 (Local Time) from KXSA Reporting Station
Clear Clear  
Wind Chill:   Ceiling: Unl
Heat Index:   Visibility: 10mi
Dew Point: -13°   Wind: 8mph
Humidity: 22%   Direction: 190°S
Pressure: 30.48"   Gusts: NA
Location:  37.93°N, 76.86°W
Report Text: KXSA 221655Z AUTO 19007KT 150V230 10SM CLR 08/M13 A3048 RMK AO2 T00751132
Loading
Personal Weather Stations






























Interactive Weather Map New forecast layout! Learn more

10-Day Weather Forecast

Advertisements
Track Severe Weather on mobile